Espaço - Ciências - Fenômenos Naturais
Meteógrafos Informações Meteorológicas em tempo real

Aeroporto Santa Maria

Histórico do Tempo
Temperatura atual: 11 graus 51 F    Umidade relativa: 100 %
Velocidade do vento: 02 nós 3 Km/h    Direção: ND graus ND
Ajuste do altímetro ..: 1015 HPA
Visibilidade: Ruim    Tempo presente: Nevoeiro

Observação
Céu nublado a 100 Pés.

Data Hora BRTTempo°CUmidadePressãoVentoVisib.
26/05 - 07:56   Nevoeiro 11° 100% 1015 /3 km/h 300
26/05 - 06:56   Nevoeiro 09° 100% 1015 Leste/3 km/h 400
26/05 - 05:56   ND ND° ND% ND /0 km/h ND
26/05 - 04:56   ND ND° ND% ND /0 km/h ND
26/05 - 03:56   ND ND° ND% ND /0 km/h ND
26/05 - 02:56   ND ND° ND% ND /0 km/h ND
26/05 - 01:56   Céu Limpo 14° 87% 1017 Este-nordeste/7 km/h OK
26/05 - 00:56   Céu Limpo 14° 87% 1017 Este-nordeste/7 km/h OK
25/05 - 23:56   Céu Limpo 13° 93% 1017 Nordeste/9 km/h OK
25/05 - 22:56   Céu Limpo 12° 100% 1017 /3 km/h OK
25/05 - 21:56   Céu Limpo 13° 100% 1017 Leste/5 km/h CAVO
25/05 - 20:56   Céu Limpo 15° 93% 1016 Nordeste/7 km/h OK
25/05 - 19:56   Não Disponível 15° 93% 1017 Este-nordeste/7 km/h OK
25/05 - 18:56   Não Disponível 16° 87% 1017 Sudeste/5 km/h OK
25/05 - 17:56   Não Disponível 18° 77% 1016 Este-sudeste/5 km/h OK
25/05 - 16:56   Parcialmente Nublado 20° 68% 1016 Sul/5 km/h 9999
25/05 - 15:56   Parcialmente Nublado 21° 60% 1017 Sudeste/3 km/h OK
25/05 - 14:56   Parcialmente Nublado 20° 64% 1017 /3 km/h OK
25/05 - 13:56   Parcialmente Nublado 19° 72% 1018 /5 km/h OK
25/05 - 12:56   Poucas nuvens esparsas 18° 77% 1019 /3 km/h OK
25/05 - 11:56   Não Disponível 17° 77% 1019 /3 km/h OK
25/05 - 10:56   Não Disponível 15° 82% 1019 Leste/3 km/h OK
25/05 - 09:56   Céu Limpo 13° 93% 1019 Norte/0 km/h OK
25/05 - 08:56   Quase sem nuvens 09° 100% 1018 Norte/0 km/h OK


Apolo11.com - Todos os direitos reservados - 2000 - 2019
Política de Privacidade   |     Termo de Uso e Licenciamento   |  -   Entre em Contato

"Deixe que me odeiem, de maneira que me temam!" - Calígula